Time;durP1;ratioP1;P1;durP2;ratioP2;P2;SDS_P1;SDS_P2;PMS_P1;PMS_P2;Temp;Humidity;BMP_temperature;BMP_pressure;BME280_temperature;BME280_humidity;BME280_pressure;Samples;Min_cycle;Max_cycle;Signal;HPM_P1;HPM_P2
2022/10/12 00:01:49;;;;;;;;;;;;;;;6.93;89.76;97461.19;1716883;81;20116;-84
2022/10/12 00:04:15;;;;;;;;;;;;;;;6.98;89.75;97456.09;1730735;83;20445;-83
2022/10/12 00:06:41;;;;;;;;;;;;;;;7.00;89.54;97459.38;1733367;81;20137;-83
2022/10/12 00:09:06;;;;;;;;;;;;;;;7.00;89.52;97463.27;1733326;81;20173;-84
2022/10/12 00:11:32;;;;;;;;;;;;;;;7.00;89.57;97456.33;1724848;83;20164;-85
2022/10/12 00:13:59;;;;;;;;;;;;;;;7.04;89.74;97456.87;1728960;81;20073;-84
2022/10/12 00:16:25;;;;;;;;;;;;;;;7.05;89.55;97451.56;1718268;83;20144;-84
2022/10/12 00:18:53;;;;;;;;;;;;;;;7.05;89.38;97453.33;1729544;81;20113;-84
2022/10/12 00:21:19;;;;;;;;;;;;;;;7.05;89.54;97454.15;1718153;83;20085;-85
2022/10/12 00:23:45;;;;;;;;;;;;;;;7.04;89.58;97457.69;1704790;83;20153;-84
2022/10/12 00:26:12;;;;;;;;;;;;;;;7.02;89.40;97456.19;1738444;81;20095;-84
2022/10/12 00:28:38;;;;;;;;;;;;;;;7.00;89.30;97457.62;1729709;83;20117;-85
2022/10/12 00:31:12;;;;;;;;;;;;;;;6.97;89.25;97457.86;1740067;81;20069;-84
2022/10/12 00:33:37;;;;;;;;;;;;;;;6.93;89.38;97448.74;1739063;81;20130;-85
2022/10/12 00:36:15;;;;;;;;;;;;;;;6.88;89.32;97452.21;1740265;82;20120;-84
2022/10/12 00:38:41;;;;;;;;;;;;;;;6.83;89.27;97453.06;1753932;81;20154;-84
2022/10/12 00:41:07;;;;;;;;;;;;;;;6.78;89.46;97451.36;1748539;81;20073;-84
2022/10/12 00:43:40;;;;;;;;;;;;;;;6.73;89.55;97449.17;1757926;81;20184;-84
2022/10/12 00:46:15;;;;;;;;;;;;;;;6.71;89.53;97443.33;1759875;81;20347;-84
2022/10/12 00:48:41;;;;;;;;;;;;;;;6.69;89.62;97440.06;1730555;82;20120;-84
2022/10/12 00:51:06;;;;;;;;;;;;;;;6.69;89.58;97442.64;1741185;82;20097;-84
2022/10/12 00:53:36;;;;;;;;;;;;;;;6.70;89.75;97449.45;1750608;81;20110;-84
2022/10/12 00:56:02;;;;;;;;;;;;;;;6.73;89.80;97449.17;1768612;81;20157;-83
2022/10/12 00:58:30;;;;;;;;;;;;;;;6.76;89.87;97450.67;1744582;81;20108;-84
2022/10/12 01:00:58;;;;;;;;;;;;;;;6.78;89.95;97445.72;1742990;81;20161;-84
2022/10/12 01:03:24;;;;;;;;;;;;;;;6.82;90.17;97450.95;1746201;81;20109;-84
2022/10/12 01:05:49;;;;;;;;;;;;;;;6.85;89.98;97443.44;1755575;81;20101;-84
2022/10/12 01:08:15;;;;;;;;;;;;;;;6.87;89.93;97440.24;1745361;81;20401;-85
2022/10/12 01:10:40;;;;;;;;;;;;;;;6.89;89.81;97433.17;1760484;81;20140;-84
2022/10/12 01:13:06;;;;;;;;;;;;;;;6.90;89.87;97434.80;1759397;81;20116;-84
2022/10/12 01:15:37;;;;;;;;;;;;;;;6.91;89.89;97433.85;1748266;81;20154;-84
2022/10/12 01:18:26;;;;;;;;;;;;;;;6.90;90.08;97434.80;1752835;81;20140;-83
2022/10/12 01:20:55;;;;;;;;;;;;;;;6.88;90.30;97432.83;1731077;81;20150;-84
2022/10/12 01:23:43;;;;;;;;;;;;;;;6.85;90.12;97436.98;1723537;81;20392;-83
2022/10/12 01:26:27;;;;;;;;;;;;;;;6.84;90.20;97434.05;1725731;81;20085;-84
2022/10/12 01:29:13;;;;;;;;;;;;;;;6.84;90.17;97443.09;1740737;81;20116;-84
2022/10/12 01:32:01;;;;;;;;;;;;;;;6.83;89.91;97442.72;1727873;82;20104;-84
2022/10/12 01:34:50;;;;;;;;;;;;;;;6.82;89.93;97440.62;1738685;82;20123;-84
2022/10/12 01:37:53;;;;;;;;;;;;;;;6.82;89.90;97441.09;1738749;82;20089;-84
2022/10/12 01:40:25;;;;;;;;;;;;;;;6.81;90.01;97441.57;1743731;81;20128;-85
2022/10/12 01:42:50;;;;;;;;;;;;;;;6.83;90.04;97444.86;1733510;81;20076;-85
2022/10/12 01:45:17;;;;;;;;;;;;;;;6.84;90.06;97444.39;1686612;82;20101;-84
2022/10/12 01:47:47;;;;;;;;;;;;;;;6.85;90.05;97440.37;1744834;81;20168;-84
2022/10/12 01:50:13;;;;;;;;;;;;;;;6.86;89.81;97444.59;1743189;82;20139;-84
2022/10/12 01:52:58;;;;;;;;;;;;;;;6.85;89.81;97448.61;1734364;81;20101;-84
2022/10/12 01:55:33;;;;;;;;;;;;;;;6.83;89.79;97440.98;1700458;83;20134;-84
2022/10/12 01:58:21;;;;;;;;;;;;;;;6.81;89.88;97445.45;1718532;81;20163;-84
2022/10/12 02:01:05;;;;;;;;;;;;;;;6.77;89.95;97438.09;1727665;82;20180;-84
2022/10/12 02:03:56;;;;;;;;;;;;;;;6.74;90.02;97444.35;1761766;81;20087;-84
2022/10/12 02:06:22;;;;;;;;;;;;;;;6.70;89.83;97445.57;1756606;81;20108;-84
2022/10/12 02:09:07;;;;;;;;;;;;;;;6.67;89.82;97449.71;1719014;81;20094;-84
2022/10/12 02:11:33;;;;;;;;;;;;;;;6.66;89.96;97441.59;1745543;81;20377;-84
2022/10/12 02:14:08;;;;;;;;;;;;;;;6.66;89.89;97451.92;1749590;81;20338;-84
2022/10/12 02:16:45;;;;;;;;;;;;;;;6.65;89.72;97448.19;1768387;81;20138;-84
2022/10/12 02:19:12;;;;;;;;;;;;;;;6.65;89.74;97443.02;1756650;81;20114;-84
2022/10/12 02:21:38;;;;;;;;;;;;;;;6.67;89.83;97448.86;1745352;82;20126;-84
2022/10/12 02:24:05;;;;;;;;;;;;;;;6.66;89.65;97448.52;1744626;81;20385;-84
2022/10/12 02:26:32;;;;;;;;;;;;;;;6.65;89.78;97446.89;1756506;81;20110;-84
2022/10/12 02:28:59;;;;;;;;;;;;;;;6.66;89.86;97444.65;1738949;81;20145;-83
2022/10/12 02:31:43;;;;;;;;;;;;;;;6.65;89.99;97449.00;1752473;81;20106;-84
2022/10/12 02:34:37;;;;;;;;;;;;;;;6.62;89.87;97447.50;1741293;82;20137;-85
2022/10/12 02:37:06;;;;;;;;;;;;;;;6.59;89.84;97448.24;1730497;81;20112;-85
2022/10/12 02:39:34;;;;;;;;;;;;;;;6.55;89.71;97441.71;1743341;81;20334;-84
2022/10/12 02:42:03;;;;;;;;;;;;;;;6.51;89.69;97445.03;1742085;81;20155;-84
2022/10/12 02:44:31;;;;;;;;;;;;;;;6.49;89.61;97446.91;1743291;81;20093;-84
2022/10/12 02:46:56;;;;;;;;;;;;;;;6.49;89.61;97454.65;1734708;81;20097;-84
2022/10/12 02:49:22;;;;;;;;;;;;;;;6.49;89.54;97454.65;1749270;82;20098;-84
2022/10/12 02:51:48;;;;;;;;;;;;;;;6.47;89.33;97451.38;1738703;81;20123;-84
2022/10/12 02:54:13;;;;;;;;;;;;;;;6.46;89.23;97446.35;1733724;81;20089;-84
2022/10/12 02:56:44;;;;;;;;;;;;;;;6.46;89.33;97450.22;1736375;81;20110;-84
2022/10/12 02:59:10;;;;;;;;;;;;;;;6.45;89.42;97443.43;1772344;81;20078;-84
2022/10/12 03:01:36;;;;;;;;;;;;;;;6.47;89.66;97447.51;1761780;81;20375;-84
2022/10/12 03:04:02;;;;;;;;;;;;;;;6.45;89.49;97451.17;1753017;81;20160;-84
2022/10/12 03:06:28;;;;;;;;;;;;;;;6.42;89.26;97455.31;1739274;81;20101;-84
2022/10/12 03:08:55;;;;;;;;;;;;;;;6.36;89.15;97450.20;1738882;81;20089;-84
2022/10/12 03:11:21;;;;;;;;;;;;;;;6.30;89.28;97448.12;1734057;81;20149;-83
2022/10/12 03:13:46;;;;;;;;;;;;;;;6.27;89.47;97456.94;1752168;81;20086;-84
2022/10/12 03:16:12;;;;;;;;;;;;;;;6.26;89.41;97451.44;1756622;81;20114;-84
2022/10/12 03:18:38;;;;;;;;;;;;;;;6.25;89.27;97454.15;1742597;81;20082;-84
2022/10/12 03:21:03;;;;;;;;;;;;;;;6.22;89.24;97452.64;1757079;81;20381;-84
2022/10/12 03:23:29;;;;;;;;;;;;;;;6.23;89.46;97448.30;1740692;81;20117;-84
2022/10/12 03:25:55;;;;;;;;;;;;;;;6.24;89.64;97456.39;1739983;81;20105;-84
2022/10/12 03:28:20;;;;;;;;;;;;;;;6.22;89.71;97453.12;1740477;81;20127;-84
2022/10/12 03:30:46;;;;;;;;;;;;;;;6.21;89.60;97456.65;1738617;81;20113;-84
2022/10/12 03:33:11;;;;;;;;;;;;;;;6.18;89.50;97454.30;1732334;82;20330;-84
2022/10/12 03:35:37;;;;;;;;;;;;;;;6.19;89.61;97450.80;1743585;82;20116;-84
2022/10/12 03:38:03;;;;;;;;;;;;;;;6.19;89.73;97453.38;1744094;81;20325;-84
2022/10/12 03:40:28;;;;;;;;;;;;;;;6.20;89.91;97448.09;1755500;81;20194;-85
2022/10/12 03:42:54;;;;;;;;;;;;;;;6.21;89.99;97451.48;1743491;81;20085;-84
2022/10/12 03:45:19;;;;;;;;;;;;;;;6.20;90.14;97444.69;1751176;81;20170;-84
2022/10/12 03:47:46;;;;;;;;;;;;;;;6.15;90.02;97441.19;1745058;81;20124;-84
2022/10/12 03:50:12;;;;;;;;;;;;;;;6.11;90.12;97438.52;1743855;81;20112;-83
2022/10/12 03:52:38;;;;;;;;;;;;;;;6.10;90.35;97443.81;1730399;82;20099;-84
2022/10/12 03:55:04;;;;;;;;;;;;;;;6.08;90.27;97439.25;1753950;81;20138;-84
2022/10/12 03:57:29;;;;;;;;;;;;;;;6.04;89.88;97439.98;1745865;81;20085;-84
2022/10/12 03:59:55;;;;;;;;;;;;;;;6.00;89.80;97441.98;1758624;81;20115;-84
2022/10/12 04:02:20;;;;;;;;;;;;;;;5.98;89.79;97448.22;1745789;81;20148;-84
2022/10/12 04:04:46;;;;;;;;;;;;;;;5.95;89.82;97446.72;1754075;81;20120;-84
2022/10/12 04:07:12;;;;;;;;;;;;;;;5.97;90.01;97452.56;1743438;81;20115;-84
2022/10/12 04:09:37;;;;;;;;;;;;;;;5.99;89.82;97453.25;1748512;82;20119;-84
2022/10/12 04:12:03;;;;;;;;;;;;;;;6.00;89.96;97456.64;1735586;82;20339;-84
2022/10/12 04:14:30;;;;;;;;;;;;;;;6.03;90.09;97450.44;1720313;82;20142;-84
2022/10/12 04:16:55;;;;;;;;;;;;;;;6.04;90.03;97449.02;1736912;82;20352;-84
2022/10/12 04:19:21;;;;;;;;;;;;;;;6.05;90.03;97443.39;1757120;81;20134;-84
2022/10/12 04:21:47;;;;;;;;;;;;;;;6.06;90.19;97445.84;1748214;81;20121;-84
2022/10/12 04:24:13;;;;;;;;;;;;;;;6.07;89.94;97441.49;1750918;82;20108;-84
2022/10/12 04:26:38;;;;;;;;;;;;;;;6.07;89.64;97450.52;1732280;81;20141;-84
2022/10/12 04:29:04;;;;;;;;;;;;;;;6.04;89.57;97451.60;1733330;81;20186;-84
2022/10/12 04:31:29;;;;;;;;;;;;;;;6.01;89.87;97453.12;1731367;82;20350;-84
2022/10/12 04:33:55;;;;;;;;;;;;;;;5.98;89.94;97450.80;1761484;81;20092;-84
2022/10/12 04:36:24;;;;;;;;;;;;;;;5.94;89.93;97453.30;1752086;81;20160;-84
2022/10/12 04:38:50;;;;;;;;;;;;;;;5.91;89.79;97455.66;1758934;81;20097;-84
2022/10/12 04:41:15;;;;;;;;;;;;;;;5.88;89.76;97458.46;1748168;81;20156;-84
2022/10/12 04:43:41;;;;;;;;;;;;;;;5.87;89.75;97454.25;1745640;81;20119;-84
2022/10/12 04:46:07;;;;;;;;;;;;;;;5.86;89.61;97451.33;1745412;81;20309;-84
2022/10/12 04:48:32;;;;;;;;;;;;;;;5.84;89.62;97448.03;1745508;82;20124;-83
2022/10/12 04:50:58;;;;;;;;;;;;;;;5.84;89.71;97453.19;1762065;81;20094;-84
2022/10/12 04:53:24;;;;;;;;;;;;;;;5.84;89.86;97451.90;1716945;82;21822;-85
2022/10/12 04:55:50;;;;;;;;;;;;;;;5.84;89.77;97452.38;1743728;81;20428;-84
2022/10/12 04:58:15;;;;;;;;;;;;;;;5.82;89.93;97451.21;1749890;81;20136;-84
2022/10/12 05:00:41;;;;;;;;;;;;;;;5.81;90.00;97456.02;1738874;81;20178;-84
2022/10/12 05:03:06;;;;;;;;;;;;;;;5.77;90.05;97452.54;1741663;81;20157;-84
2022/10/12 05:05:33;;;;;;;;;;;;;;;5.76;90.39;97445.75;1752268;81;20407;-84
2022/10/12 05:07:59;;;;;;;;;;;;;;;5.76;90.55;97453.48;1742534;81;20088;-84
2022/10/12 05:10:25;;;;;;;;;;;;;;;5.77;90.76;97455.94;1735874;81;20145;-84
2022/10/12 05:12:51;;;;;;;;;;;;;;;5.80;90.77;97460.02;1754333;81;20146;-84
2022/10/12 05:15:18;;;;;;;;;;;;;;;5.82;90.71;97462.81;1748009;81;20148;-85
2022/10/12 05:17:44;;;;;;;;;;;;;;;5.86;90.92;97462.12;1768697;81;20355;-85
2022/10/12 05:20:10;;;;;;;;;;;;;;;5.89;90.69;97463.97;1748700;81;20116;-84
2022/10/12 05:22:36;;;;;;;;;;;;;;;5.93;90.87;97466.66;1753808;81;20303;-83
2022/10/12 05:25:01;;;;;;;;;;;;;;;5.95;90.92;97463.48;1717669;83;20092;-84
2022/10/12 05:27:27;;;;;;;;;;;;;;;5.98;91.03;97474.84;1712007;81;20085;-84
2022/10/12 05:29:53;;;;;;;;;;;;;;;5.99;91.11;97473.07;1745734;82;20152;-85
2022/10/12 05:32:18;;;;;;;;;;;;;;;6.04;91.34;97471.42;1740296;82;20109;-85
2022/10/12 05:34:44;;;;;;;;;;;;;;;6.09;91.37;97471.85;1741656;81;20125;-85
2022/10/12 05:37:10;;;;;;;;;;;;;;;6.13;91.31;97479.20;1741085;82;20420;-85
2022/10/12 05:39:36;;;;;;;;;;;;;;;6.21;91.10;97476.00;1743431;81;20093;-84
2022/10/12 05:42:02;;;;;;;;;;;;;;;6.28;91.09;97481.80;1755437;81;20113;-84
2022/10/12 05:44:28;;;;;;;;;;;;;;;6.35;91.08;97476.97;1757513;81;20138;-84
2022/10/12 05:46:53;;;;;;;;;;;;;;;6.41;91.13;97476.44;1749766;81;20347;-84
2022/10/12 05:49:19;;;;;;;;;;;;;;;6.44;91.25;97468.91;1751125;81;20120;-84
2022/10/12 05:51:45;;;;;;;;;;;;;;;6.49;91.31;97470.61;1738908;81;20143;-84
2022/10/12 05:54:10;;;;;;;;;;;;;;;6.52;91.24;97468.61;1743122;82;20077;-84
2022/10/12 05:56:36;;;;;;;;;;;;;;;6.57;91.39;97481.13;1743232;81;20109;-84
2022/10/12 05:59:02;;;;;;;;;;;;;;;6.63;91.41;97475.43;1742509;81;20413;-84
2022/10/12 06:01:28;;;;;;;;;;;;;;;6.68;91.35;97483.63;1743484;82;20089;-84
2022/10/12 06:03:54;;;;;;;;;;;;;;;6.75;91.36;97480.03;1742291;81;20100;-85
2022/10/12 06:06:20;;;;;;;;;;;;;;;6.84;91.59;97480.55;1739753;82;20081;-84
2022/10/12 06:08:45;;;;;;;;;;;;;;;6.92;91.64;97481.99;1743094;81;20130;-85
2022/10/12 06:11:12;;;;;;;;;;;;;;;6.96;91.54;97482.06;1761261;81;20187;-84
2022/10/12 06:13:38;;;;;;;;;;;;;;;7.00;91.55;97485.22;1743445;81;20397;-85
2022/10/12 06:16:03;;;;;;;;;;;;;;;7.02;91.65;97479.45;1754423;81;20164;-84
2022/10/12 06:18:29;;;;;;;;;;;;;;;7.06;91.62;97476.93;1740838;82;20392;-84
2022/10/12 06:20:56;;;;;;;;;;;;;;;7.12;91.33;97481.55;1757083;81;20180;-85
2022/10/12 06:23:22;;;;;;;;;;;;;;;7.18;91.27;97475.88;1743399;82;20397;-84
2022/10/12 06:25:50;;;;;;;;;;;;;;;7.26;91.25;97479.88;1741585;82;20093;-84
2022/10/12 06:28:16;;;;;;;;;;;;;;;7.32;91.11;97478.08;1746329;81;20376;-84
2022/10/12 06:30:42;;;;;;;;;;;;;;;7.35;91.18;97477.80;1719032;81;20105;-84
2022/10/12 06:33:08;;;;;;;;;;;;;;;7.40;91.36;97479.97;1739132;81;20092;-84
2022/10/12 06:35:34;;;;;;;;;;;;;;;7.44;91.33;97476.16;1742163;82;20112;-85
2022/10/12 06:37:59;;;;;;;;;;;;;;;7.48;91.29;97481.39;1748497;82;20087;-85
2022/10/12 06:40:25;;;;;;;;;;;;;;;7.56;91.33;97482.02;1747431;81;20349;-85
2022/10/12 06:42:50;;;;;;;;;;;;;;;7.64;91.34;97476.97;1740612;81;20097;-85
2022/10/12 06:45:16;;;;;;;;;;;;;;;7.71;91.26;97482.77;1744792;81;20192;-84
2022/10/12 06:47:41;;;;;;;;;;;;;;;7.79;91.34;97488.06;1742658;82;20412;-84
2022/10/12 06:50:08;;;;;;;;;;;;;;;7.84;91.35;97491.56;1732033;81;20133;-84
2022/10/12 06:52:33;;;;;;;;;;;;;;;7.88;91.20;97495.50;1743727;81;20381;-84
2022/10/12 06:54:59;;;;;;;;;;;;;;;7.89;91.01;97490.66;1756669;81;20323;-84
2022/10/12 06:57:25;;;;;;;;;;;;;;;7.91;90.75;97501.69;1748282;81;20082;-85
2022/10/12 06:59:50;;;;;;;;;;;;;;;7.94;90.34;97498.00;1752089;81;20124;-84
2022/10/12 07:02:16;;;;;;;;;;;;;;;7.99;90.24;97499.72;1762609;80;20092;-84
2022/10/12 07:04:41;;;;;;;;;;;;;;;8.00;90.19;97501.35;1754172;81;20173;-85
2022/10/12 07:07:07;;;;;;;;;;;;;;;8.04;90.29;97494.94;1765930;81;20133;-85
2022/10/12 07:09:33;;;;;;;;;;;;;;;8.04;90.20;97497.52;1757400;81;20310;-85
2022/10/12 07:11:59;;;;;;;;;;;;;;;8.05;90.60;97492.20;1744946;81;20171;-84
2022/10/12 07:14:24;;;;;;;;;;;;;;;8.09;90.49;97496.14;1754153;81;20150;-84
2022/10/12 07:16:50;;;;;;;;;;;;;;;8.16;90.39;97498.20;1744559;81;20081;-84
2022/10/12 07:19:16;;;;;;;;;;;;;;;8.22;90.38;97491.97;1742651;82;20131;-84
2022/10/12 07:21:42;;;;;;;;;;;;;;;8.28;90.35;97495.76;1760061;81;20113;-84
2022/10/12 07:24:12;;;;;;;;;;;;;;;8.33;90.00;97492.30;1744539;81;20148;-85
2022/10/12 07:26:38;;;;;;;;;;;;;;;8.36;89.85;97492.04;1742949;82;20342;-84
2022/10/12 07:29:03;;;;;;;;;;;;;;;8.41;89.94;97485.95;1745293;81;20080;-84
2022/10/12 07:31:29;;;;;;;;;;;;;;;8.47;89.97;97484.11;1736198;81;20330;-84
2022/10/12 07:33:55;;;;;;;;;;;;;;;8.52;90.24;97483.67;1745322;81;20137;-84
2022/10/12 07:36:21;;;;;;;;;;;;;;;8.51;90.27;97485.93;1719131;81;20144;-84
2022/10/12 07:38:47;;;;;;;;;;;;;;;8.52;90.25;97483.67;1734518;81;20342;-85
2022/10/12 07:41:13;;;;;;;;;;;;;;;8.58;90.41;97482.62;1738383;81;20093;-84
2022/10/12 07:43:39;;;;;;;;;;;;;;;8.62;90.09;97493.05;1742262;81;20120;-85
2022/10/12 07:46:04;;;;;;;;;;;;;;;8.60;89.98;97495.42;1745794;81;20128;-85
2022/10/12 07:48:30;;;;;;;;;;;;;;;8.59;89.54;97484.25;1754427;82;20080;-84
2022/10/12 07:51:02;;;;;;;;;;;;;;;8.57;89.87;97488.76;1759348;81;20160;-84
2022/10/12 07:53:28;;;;;;;;;;;;;;;8.61;90.24;97487.98;1742106;81;20169;-84
2022/10/12 07:55:59;;;;;;;;;;;;;;;8.64;90.07;97482.55;1739616;81;20140;-85
2022/10/12 07:58:24;;;;;;;;;;;;;;;8.64;89.64;97487.73;1741029;82;20076;-84
2022/10/12 08:00:50;;;;;;;;;;;;;;;8.63;89.92;97480.92;1742611;81;20124;-85
2022/10/12 08:03:16;;;;;;;;;;;;;;;8.68;90.14;97487.77;1745319;81;20161;-85
2022/10/12 08:05:41;;;;;;;;;;;;;;;8.78;90.29;97484.64;1740553;81;20364;-83
2022/10/12 08:08:07;;;;;;;;;;;;;;;8.83;90.15;97482.94;1738282;81;20149;-84
2022/10/12 08:10:34;;;;;;;;;;;;;;;8.87;90.16;97483.80;1744521;81;20976;-84
2022/10/12 08:12:59;;;;;;;;;;;;;;;8.93;90.23;97486.28;1758268;81;20354;-85
2022/10/12 08:15:25;;;;;;;;;;;;;;;8.94;90.26;97482.25;1754152;81;20071;-84
2022/10/12 08:17:51;;;;;;;;;;;;;;;8.98;90.06;97480.20;1761133;81;20107;-84
2022/10/12 08:20:17;;;;;;;;;;;;;;;9.02;89.98;97479.77;1741549;81;20204;-84
2022/10/12 08:22:43;;;;;;;;;;;;;;;9.09;90.02;97484.36;1759812;81;20117;-84
2022/10/12 08:25:09;;;;;;;;;;;;;;;9.11;90.20;97481.98;1740264;81;20088;-84
2022/10/12 08:27:35;;;;;;;;;;;;;;;9.19;90.29;97483.83;1745402;82;20124;-84
2022/10/12 08:30:00;;;;;;;;;;;;;;;9.19;90.48;97480.75;1745398;81;20100;-84
2022/10/12 08:32:26;;;;;;;;;;;;;;;9.25;90.33;97485.34;1735095;81;20415;-84
2022/10/12 08:34:51;;;;;;;;;;;;;;;9.24;90.25;97484.20;1702564;83;20151;-84
2022/10/12 08:37:17;;;;;;;;;;;;;;;9.26;90.39;97488.27;1693729;85;20068;-84
2022/10/12 08:39:43;;;;;;;;;;;;;;;9.31;90.18;97479.59;1663997;85;20146;-84
2022/10/12 08:42:18;;;;;;;;;;;;;;;9.31;89.97;97480.89;1683145;85;20380;-84
2022/10/12 08:44:59;;;;;;;;;;;;;;;9.31;89.60;97478.77;1733587;82;20164;-85
2022/10/12 08:47:31;;;;;;;;;;;;;;;9.32;89.65;97478.63;1734403;82;20149;-84
2022/10/12 08:49:57;;;;;;;;;;;;;;;9.38;89.58;97481.58;1721026;82;20327;-84
2022/10/12 08:52:27;;;;;;;;;;;;;;;9.45;89.66;97486.53;1712413;83;20122;-84
2022/10/12 08:54:52;;;;;;;;;;;;;;;9.55;90.01;97475.10;1735801;82;20108;-84
2022/10/12 08:57:18;;;;;;;;;;;;;;;9.62;89.90;97469.67;1727276;82;20315;-84
2022/10/12 08:59:44;;;;;;;;;;;;;;;9.71;89.47;97473.13;1733143;82;20166;-85
2022/10/12 09:02:48;;;;;;;;;;;;;;;9.76;89.61;97476.57;1734511;82;20333;-84
2022/10/12 09:05:20;;;;;;;;;;;;;;;9.82;89.63;97477.29;1706104;82;20338;-85
2022/10/12 09:07:58;;;;;;;;;;;;;;;9.94;89.48;97476.09;1721313;82;20327;-85
2022/10/12 09:10:45;;;;;;;;;;;;;;;10.01;88.74;97469.31;1736402;82;20102;-84
2022/10/12 09:13:29;;;;;;;;;;;;;;;10.10;88.28;97476.70;1734660;82;20086;-85
2022/10/12 09:16:01;;;;;;;;;;;;;;;10.19;87.86;97475.28;1720288;83;20158;-84
2022/10/12 09:18:36;;;;;;;;;;;;;;;10.27;86.84;97471.16;1736893;82;20489;-83
2022/10/12 09:21:02;;;;;;;;;;;;;;;10.32;86.65;97475.40;1734136;82;20288;-84
2022/10/12 09:23:32;;;;;;;;;;;;;;;10.35;86.56;97473.78;1720432;82;20340;-84
2022/10/12 09:26:02;;;;;;;;;;;;;;;10.39;84.82;97470.72;1685657;82;20180;-84
2022/10/12 09:28:36;;;;;;;;;;;;;;;10.44;85.29;97468.98;1740538;82;20350;-84
2022/10/12 09:31:11;;;;;;;;;;;;;;;10.51;85.94;97471.28;1735214;82;20403;-84
2022/10/12 09:33:45;;;;;;;;;;;;;;;10.55;83.83;97466.58;1719855;82;20090;-84
2022/10/12 09:36:13;;;;;;;;;;;;;;;10.48;84.32;97467.70;1690287;84;20176;-85
2022/10/12 09:38:38;;;;;;;;;;;;;;;10.49;84.49;97466.24;1706866;83;20158;-85
2022/10/12 09:41:04;;;;;;;;;;;;;;;10.58;84.67;97468.89;1763624;81;20106;-84
2022/10/12 09:43:29;;;;;;;;;;;;;;;10.56;83.93;97469.02;1747531;81;20139;-85
2022/10/12 09:45:55;;;;;;;;;;;;;;;10.53;83.88;97474.53;1740836;82;20128;-85
2022/10/12 09:48:22;;;;;;;;;;;;;;;10.48;83.92;97472.89;1742896;81;20119;-84
2022/10/12 09:50:54;;;;;;;;;;;;;;;10.50;83.08;97468.36;1751062;81;20082;-84
2022/10/12 09:53:26;;;;;;;;;;;;;;;10.59;83.70;97462.24;1754451;81;20088;-84
2022/10/12 09:56:07;;;;;;;;;;;;;;;10.71;83.24;97462.28;1743617;81;20104;-84
2022/10/12 09:58:42;;;;;;;;;;;;;;;10.80;83.19;97461.35;1745219;81;20073;-84
2022/10/12 10:01:17;;;;;;;;;;;;;;;10.89;82.07;97467.87;1745530;81;20107;-84
2022/10/12 10:03:47;;;;;;;;;;;;;;;10.95;81.80;97467.26;1753925;81;20114;-85
2022/10/12 10:06:14;;;;;;;;;;;;;;;11.02;80.95;97464.34;1767742;81;20121;-84
2022/10/12 10:08:44;;;;;;;;;;;;;;;11.09;81.26;97463.57;1761558;81;20082;-84
2022/10/12 10:11:14;;;;;;;;;;;;;;;11.17;81.43;97458.05;1748026;81;20132;-85
2022/10/12 10:13:44;;;;;;;;;;;;;;;11.26;82.34;97467.03;1739632;81;20113;-85
2022/10/12 10:16:10;;;;;;;;;;;;;;;11.31;81.72;97457.44;1756231;81;20089;-84
2022/10/12 10:18:42;;;;;;;;;;;;;;;11.33;81.00;97458.90;1745430;81;20073;-85
2022/10/12 10:21:10;;;;;;;;;;;;;;;11.31;80.82;97456.13;1738257;81;20089;-85
2022/10/12 10:23:50;;;;;;;;;;;;;;;11.34;81.33;97458.41;1746440;81;20158;-85
2022/10/12 10:26:18;;;;;;;;;;;;;;;11.41;79.24;97459.41;1777447;80;20314;-84
2022/10/12 10:28:46;;;;;;;;;;;;;;;11.51;80.61;97454.86;1737841;81;20087;-84
2022/10/12 10:31:16;;;;;;;;;;;;;;;11.49;79.72;97457.30;1745708;81;20116;-84
2022/10/12 10:33:42;;;;;;;;;;;;;;;11.37;80.31;97457.59;1756773;81;20110;-85
2022/10/12 10:36:21;;;;;;;;;;;;;;;11.27;79.36;97462.15;1741694;82;20104;-85
2022/10/12 10:39:01;;;;;;;;;;;;;;;11.20;79.31;97450.73;1755184;81;20327;-85
2022/10/12 10:41:28;;;;;;;;;;;;;;;11.29;79.20;97453.69;1747561;81;20350;-84
2022/10/12 10:43:54;;;;;;;;;;;;;;;11.22;78.19;97454.47;1739844;81;20100;-84
2022/10/12 10:46:28;;;;;;;;;;;;;;;11.16;78.72;97456.42;1742008;82;20120;-85
2022/10/12 10:49:00;;;;;;;;;;;;;;;11.19;79.14;97460.81;1723577;81;20341;-85
2022/10/12 10:51:48;;;;;;;;;;;;;;;11.14;78.51;97460.48;1745227;81;20341;-85
2022/10/12 10:54:29;;;;;;;;;;;;;;;11.16;77.52;97462.44;1742012;81;20096;-85
2022/10/12 10:57:02;;;;;;;;;;;;;;;11.29;78.21;97455.48;1737668;81;20445;-84
2022/10/12 10:59:37;;;;;;;;;;;;;;;11.41;78.49;97451.12;1754569;81;20099;-85
2022/10/12 11:02:35;;;;;;;;;;;;;;;11.55;78.16;97443.62;1753098;81;20086;-84
2022/10/12 11:05:14;;;;;;;;;;;;;;;11.70;77.58;97446.73;1748252;81;20170;-84
2022/10/12 11:07:56;;;;;;;;;;;;;;;11.83;77.29;97450.67;1762712;81;20166;-85
2022/10/12 11:10:37;;;;;;;;;;;;;;;11.82;77.84;97447.25;1747886;81;20105;-84
2022/10/12 11:13:09;;;;;;;;;;;;;;;11.92;77.36;97444.00;1741802;81;20330;-84
2022/10/12 11:15:47;;;;;;;;;;;;;;;12.05;77.12;97444.81;1740758;81;20108;-85
2022/10/12 11:18:20;;;;;;;;;;;;;;;12.14;76.86;97440.39;1755437;81;20109;-85
2022/10/12 11:20:51;;;;;;;;;;;;;;;12.22;76.89;97435.98;1742682;81;20089;-85
2022/10/12 11:23:42;;;;;;;;;;;;;;;12.30;76.04;97429.93;1745744;81;20112;-85
2022/10/12 11:26:23;;;;;;;;;;;;;;;12.40;76.40;97429.76;1757914;81;20092;-84
2022/10/12 11:28:52;;;;;;;;;;;;;;;12.48;76.10;97429.23;1744121;82;20084;-85
2022/10/12 11:31:33;;;;;;;;;;;;;;;12.58;76.49;97429.05;1740184;82;20710;-85
2022/10/12 11:34:02;;;;;;;;;;;;;;;12.65;76.82;97432.59;1739561;81;20080;-85
2022/10/12 11:36:27;;;;;;;;;;;;;;;12.70;75.21;97430.31;1741635;81;20123;-84
2022/10/12 11:39:01;;;;;;;;;;;;;;;12.75;75.25;97427.19;1739537;82;20112;-85
2022/10/12 11:41:33;;;;;;;;;;;;;;;12.83;75.15;97420.61;1742768;81;20124;-85
2022/10/12 11:44:01;;;;;;;;;;;;;;;12.87;74.71;97424.03;1741536;81;20084;-85
2022/10/12 11:46:39;;;;;;;;;;;;;;;12.87;74.58;97421.43;1739648;82;20093;-84
2022/10/12 11:49:17;;;;;;;;;;;;;;;12.85;74.28;97422.55;1745483;81;20066;-85
2022/10/12 11:51:45;;;;;;;;;;;;;;;12.85;74.90;97427.77;1748954;81;20110;-85
2022/10/12 11:54:26;;;;;;;;;;;;;;;12.86;74.58;97422.41;1735351;81;20329;-83
2022/10/12 11:56:54;;;;;;;;;;;;;;;12.87;73.19;97421.92;1743069;82;20115;-85
2022/10/12 11:59:35;;;;;;;;;;;;;;;12.87;74.37;97423.22;1736855;81;20108;-85
2022/10/12 12:02:19;;;;;;;;;;;;;;;12.91;72.98;97419.28;1752523;81;20186;-84
2022/10/12 12:04:46;;;;;;;;;;;;;;;13.00;75.14;97421.34;1749593;81;20123;-85
2022/10/12 12:07:38;;;;;;;;;;;;;;;13.06;73.38;97416.77;1762129;81;20110;-85
2022/10/12 12:10:29;;;;;;;;;;;;;;;13.01;72.83;97414.65;1727407;81;20166;-85
2022/10/12 12:13:19;;;;;;;;;;;;;;;12.90;73.29;97413.25;1759959;81;20140;-84
2022/10/12 12:15:51;;;;;;;;;;;;;;;12.89;73.54;97416.04;1751184;81;20178;-85
2022/10/12 12:18:22;;;;;;;;;;;;;;;12.86;73.29;97411.17;1733691;81;20389;-85
2022/10/12 12:20:59;;;;;;;;;;;;;;;12.92;73.25;97406.56;1740670;81;20086;-85
2022/10/12 12:23:40;;;;;;;;;;;;;;;13.00;72.67;97405.20;1734579;81;20317;-84
2022/10/12 12:26:12;;;;;;;;;;;;;;;13.08;71.28;97409.08;1740734;81;20110;-85
2022/10/12 12:28:42;;;;;;;;;;;;;;;13.18;72.82;97404.98;1737498;81;20097;-84
2022/10/12 12:31:23;;;;;;;;;;;;;;;13.26;71.79;97406.72;1742802;82;20136;-85
2022/10/12 12:34:00;;;;;;;;;;;;;;;13.33;71.29;97404.53;1759229;81;20109;-85
2022/10/12 12:36:43;;;;;;;;;;;;;;;13.24;71.87;97408.69;1725554;81;20175;-85
2022/10/12 12:39:09;;;;;;;;;;;;;;;13.08;71.79;97409.57;1742873;81;20108;-85
2022/10/12 12:41:57;;;;;;;;;;;;;;;13.06;71.19;97409.75;1737381;81;20101;-85
2022/10/12 12:44:36;;;;;;;;;;;;;;;13.14;70.37;97404.95;1711307;82;20164;-85
2022/10/12 12:47:06;;;;;;;;;;;;;;;13.18;72.02;97401.07;1736161;81;20115;-84
2022/10/12 12:49:40;;;;;;;;;;;;;;;13.25;71.19;97408.52;1760365;81;20114;-85
2022/10/12 12:52:19;;;;;;;;;;;;;;;13.33;70.96;97399.31;1740041;81;20153;-85
2022/10/12 12:55:14;;;;;;;;;;;;;;;13.42;70.66;97398.77;1747011;81;20118;-85
2022/10/12 12:58:05;;;;;;;;;;;;;;;13.46;69.78;97401.34;1745427;81;20093;-85
2022/10/12 13:00:40;;;;;;;;;;;;;;;13.53;69.47;97396.25;1761536;81;20086;-85
2022/10/12 13:03:17;;;;;;;;;;;;;;;13.55;69.54;97394.27;1754903;81;20175;-85
2022/10/12 13:06:10;;;;;;;;;;;;;;;13.58;69.27;97390.81;1744984;82;20149;-85
2022/10/12 13:08:59;;;;;;;;;;;;;;;13.65;69.28;97389.60;1734444;81;20358;-85